Time;durP1;ratioP1;P1;durP2;ratioP2;P2;SDS_P1;SDS_P2;PMS_P1;PMS_P2;Temp;Humidity;BMP_temperature;BMP_pressure;BME280_temperature;BME280_humidity;BME280_pressure;Samples;Min_cycle;Max_cycle;Signal;HPM_P1;HPM_P2
2021/11/07 00:01:02;;;;;;;41.90;26.97;;;;;;;12.74;95.10;95807.13;5115525;28;20534;-82
2021/11/07 00:03:32;;;;;;;45.30;27.47;;;;;;;12.70;95.11;95804.72;5119580;28;20550;-82
2021/11/07 00:06:06;;;;;;;54.40;28.73;;;;;;;12.71;94.96;95805.56;5117800;28;20444;-82
2021/11/07 00:08:45;;;;;;;43.97;27.80;;;;;;;12.71;95.86;95795.84;5116113;28;20475;-83
2021/11/07 00:11:22;;;;;;;52.83;28.03;;;;;;;12.74;95.90;95794.81;5117909;28;20493;-83
2021/11/07 00:13:51;;;;;;;44.70;26.53;;;;;;;12.71;96.14;95789.75;5116767;28;20473;-83
2021/11/07 00:16:24;;;;;;;46.43;28.40;;;;;;;12.75;96.12;95785.09;5116987;28;20550;-82
2021/11/07 00:19:04;;;;;;;42.50;26.77;;;;;;;12.78;96.47;95785.69;5116698;28;20435;-82
2021/11/07 00:21:37;;;;;;;47.53;28.90;;;;;;;12.75;95.64;95783.31;5116249;28;20450;-82
2021/11/07 00:24:08;;;;;;;49.67;29.17;;;;;;;12.80;96.40;95786.41;5115247;28;20473;-82
2021/11/07 00:26:44;;;;;;;49.00;29.17;;;;;;;12.85;96.11;95788.69;5114630;28;20436;-82
2021/11/07 00:29:16;;;;;;;41.80;25.50;;;;;;;12.92;95.72;95793.34;5113681;28;20450;-82
2021/11/07 00:31:48;;;;;;;43.87;26.27;;;;;;;12.89;95.58;95793.56;5116433;28;20520;-82
2021/11/07 00:34:48;;;;;;;45.93;26.57;;;;;;;12.91;96.04;95791.66;5114812;28;20482;-82
2021/11/07 00:37:18;;;;;;;48.27;28.13;;;;;;;12.94;96.00;95791.41;5115421;28;20930;-82
2021/11/07 00:39:49;;;;;;;56.23;29.00;;;;;;;12.93;95.96;95783.63;5046714;28;20447;-82
2021/11/07 00:42:21;;;;;;;60.00;33.90;;;;;;;12.89;95.49;95785.69;5114687;28;20852;-82
2021/11/07 00:44:55;;;;;;;63.33;30.80;;;;;;;12.84;96.29;95792.28;5114559;28;20451;-83
2021/11/07 00:47:33;;;;;;;58.70;29.80;;;;;;;12.85;96.19;95794.78;5114502;28;20997;-83
2021/11/07 00:50:03;;;;;;;50.27;27.90;;;;;;;12.86;96.36;95796.47;5062332;28;20956;-82
2021/11/07 00:52:35;;;;;;;47.40;27.40;;;;;;;12.80;96.37;95791.69;5115144;28;20478;-82
2021/11/07 00:55:07;;;;;;;46.47;25.30;;;;;;;12.78;96.64;95780.44;5114488;28;20541;-82
2021/11/07 00:57:49;;;;;;;43.30;26.03;;;;;;;12.76;96.88;95774.44;5114723;28;20443;-82
2021/11/07 01:00:26;;;;;;;48.90;26.57;;;;;;;12.78;97.09;95783.06;5114382;28;20443;-82
2021/11/07 01:02:54;;;;;;;44.57;28.37;;;;;;;12.77;96.63;95767.38;5113869;28;20443;-83
2021/11/07 01:05:25;;;;;;;48.27;27.30;;;;;;;12.83;96.89;95772.16;5117677;28;21062;-83
2021/11/07 01:07:53;;;;;;;51.83;29.67;;;;;;;12.80;96.37;95752.19;5118441;28;20443;-82
2021/11/07 01:10:20;;;;;;;43.40;27.47;;;;;;;12.86;96.05;95762.22;5082515;28;20445;-83
2021/11/07 01:12:47;;;;;;;45.80;30.30;;;;;;;12.79;96.42;95753.13;5118040;28;20914;-83
2021/11/07 01:15:15;;;;;;;46.63;27.80;;;;;;;12.81;96.45;95742.47;5118135;28;20851;-83
2021/11/07 01:17:44;;;;;;;52.83;27.63;;;;;;;12.78;96.44;95738.28;5118417;28;20451;-83
2021/11/07 01:20:14;;;;;;;46.07;27.53;;;;;;;12.86;96.10;95751.69;5066260;28;20823;-83
2021/11/07 01:22:51;;;;;;;58.30;31.33;;;;;;;12.85;96.31;95749.16;5118412;28;20867;-82
2021/11/07 01:25:18;;;;;;;51.50;28.93;;;;;;;12.86;96.80;95751.69;5117925;28;20451;-83
2021/11/07 01:27:46;;;;;;;45.33;26.87;;;;;;;12.85;96.75;95749.16;5117926;28;20790;-83
2021/11/07 01:30:17;;;;;;;48.80;25.53;;;;;;;12.83;96.99;95732.66;5117258;28;20802;-83
2021/11/07 01:32:50;;;;;;;38.80;25.33;;;;;;;12.88;96.50;95744.50;5064559;28;20504;-83
2021/11/07 01:35:20;;;;;;;44.30;25.50;;;;;;;12.86;96.53;95740.31;5117067;28;20474;-83
2021/11/07 01:37:56;;;;;;;53.53;28.60;;;;;;;12.79;97.04;95739.97;5117286;28;20787;-83
2021/11/07 01:40:26;;;;;;;40.57;26.90;;;;;;;12.81;97.50;95735.41;5116857;28;20475;-83
2021/11/07 01:42:55;;;;;;;44.30;26.40;;;;;;;12.78;97.17;95738.28;5117001;28;20482;-83
2021/11/07 01:45:26;;;;;;;39.03;25.07;;;;;;;12.84;97.63;95739.59;5117081;28;20463;-83
2021/11/07 01:48:03;;;;;;;36.13;24.27;;;;;;;12.86;96.52;95743.78;5116863;28;20471;-83
2021/11/07 01:50:34;;;;;;;39.70;24.93;;;;;;;12.86;96.21;95727.97;5116962;28;20959;-83
2021/11/07 01:53:07;;;;;;;46.37;25.10;;;;;;;12.86;96.42;95725.34;5116980;28;20447;-83
2021/11/07 01:55:34;;;;;;;44.37;28.70;;;;;;;12.89;96.27;95726.88;5116724;28;20479;-83
2021/11/07 01:58:02;;;;;;;36.70;22.70;;;;;;;12.86;96.15;95725.34;5116773;28;20467;-83
2021/11/07 02:00:32;;;;;;;38.73;24.97;;;;;;;12.82;95.62;95729.19;5116407;28;20447;-83
2021/11/07 02:03:00;;;;;;;35.93;23.17;;;;;;;12.84;96.11;95729.91;5116752;28;20498;-83
2021/11/07 02:05:27;;;;;;;34.40;23.70;;;;;;;12.82;96.29;95741.50;5116434;28;20542;-83
2021/11/07 02:07:55;;;;;;;43.87;26.80;;;;;;;12.78;95.86;95733.03;5117049;28;20447;-82
2021/11/07 02:10:22;;;;;;;42.70;25.20;;;;;;;12.83;95.96;95735.28;5116732;28;20447;-83
2021/11/07 02:12:49;;;;;;;46.63;27.97;;;;;;;12.81;96.17;95740.69;5116617;28;20510;-83
2021/11/07 02:15:19;;;;;;;49.13;28.10;;;;;;;12.74;96.45;95743.94;5062293;28;20478;-83
2021/11/07 02:17:46;;;;;;;43.63;26.93;;;;;;;12.68;96.79;95742.59;5116414;28;20439;-83
2021/11/07 02:20:21;;;;;;;46.23;29.20;;;;;;;12.58;97.24;95739.03;5116363;28;20455;-83
2021/11/07 02:22:48;;;;;;;49.63;28.27;;;;;;;12.58;97.36;95737.25;5116372;28;20874;-82
2021/11/07 02:25:15;;;;;;;45.10;26.23;;;;;;;12.58;97.55;95733.75;5116008;28;20992;-83
2021/11/07 02:27:42;;;;;;;48.67;26.87;;;;;;;12.59;96.68;95738.06;5116513;28;20441;-82
2021/11/07 02:30:12;;;;;;;42.93;25.90;;;;;;;12.57;96.86;95729.47;5116135;28;20448;-83
2021/11/07 02:32:40;;;;;;;49.73;26.13;;;;;;;12.63;97.15;95731.59;5116349;28;20813;-83
2021/11/07 02:35:07;;;;;;;45.83;28.77;;;;;;;12.59;96.91;95728.38;5115914;28;20488;-83
2021/11/07 02:37:35;;;;;;;45.90;27.63;;;;;;;12.68;96.08;95732.06;5115775;28;20444;-83
2021/11/07 02:40:05;;;;;;;38.30;24.73;;;;;;;12.65;96.22;95732.31;5116118;28;20439;-83
2021/11/07 02:42:33;;;;;;;45.73;26.37;;;;;;;12.66;96.20;95736.63;5115924;28;20435;-83
2021/11/07 02:45:01;;;;;;;45.33;27.87;;;;;;;12.70;96.54;95735.41;5115979;28;20467;-83
2021/11/07 02:47:28;;;;;;;52.97;27.57;;;;;;;12.72;96.30;95725.59;5115691;28;20474;-83
2021/11/07 02:49:55;;;;;;;50.80;29.13;;;;;;;12.73;96.60;95726.47;5115641;28;20442;-83
2021/11/07 02:52:22;;;;;;;43.43;27.90;;;;;;;12.70;96.29;95724.88;5115718;28;20454;-83
2021/11/07 02:54:51;;;;;;;40.53;25.83;;;;;;;12.78;96.17;95737.47;5115538;28;20475;-83
2021/11/07 02:57:21;;;;;;;45.83;27.40;;;;;;;12.81;96.24;95732.78;5115614;28;20513;-83
2021/11/07 02:59:55;;;;;;;49.20;27.80;;;;;;;12.80;95.80;95727.63;5064142;28;20854;-83
2021/11/07 03:02:23;;;;;;;56.17;29.40;;;;;;;12.75;96.05;95711.38;5079723;28;20443;-83
2021/11/07 03:04:50;;;;;;;48.60;29.80;;;;;;;12.72;95.87;95712.44;5115052;28;20486;-83
2021/11/07 03:07:17;;;;;;;50.00;29.50;;;;;;;12.75;96.17;95712.22;5115223;28;20889;-83
2021/11/07 03:09:45;;;;;;;45.20;27.60;;;;;;;12.76;95.71;95715.69;5115318;28;20483;-82
2021/11/07 03:12:13;;;;;;;50.03;27.60;;;;;;;12.78;96.03;95725.13;5115549;28;20463;-83
2021/11/07 03:14:45;;;;;;;51.47;29.63;;;;;;;12.76;95.64;95724.41;5114857;28;20866;-83
2021/11/07 03:17:13;;;;;;;46.70;29.03;;;;;;;12.79;95.00;95726.81;5115107;28;20448;-83
2021/11/07 03:19:41;;;;;;;51.20;28.87;;;;;;;12.79;95.49;95728.59;5114890;28;20456;-83
2021/11/07 03:22:11;;;;;;;42.33;27.20;;;;;;;12.74;95.89;95726.34;5062466;28;20450;-83
2021/11/07 03:24:40;;;;;;;48.53;29.03;;;;;;;12.72;95.56;95722.97;5115176;28;20446;-83
2021/11/07 03:27:12;;;;;;;45.00;27.17;;;;;;;12.72;95.22;95730.84;5115285;28;20447;-83
2021/11/07 03:29:44;;;;;;;36.60;26.93;;;;;;;12.70;95.74;95724.88;5115431;28;20435;-82
2021/11/07 03:32:16;;;;;;;49.10;29.30;;;;;;;12.70;95.74;95735.41;5115412;28;20444;-83
2021/11/07 03:34:46;;;;;;;57.17;28.83;;;;;;;12.71;96.17;95737.09;5114685;28;20444;-82
2021/11/07 03:37:14;;;;;;;49.40;28.10;;;;;;;12.68;96.36;95734.69;5114665;28;20446;-83
2021/11/07 03:39:41;;;;;;;44.30;29.60;;;;;;;12.70;95.68;95740.69;5114874;28;20471;-83
2021/11/07 03:42:12;;;;;;;48.97;29.20;;;;;;;12.62;95.69;95735.19;5114646;28;20451;-83
2021/11/07 03:44:41;;;;;;;43.60;26.90;;;;;;;12.61;95.63;95733.53;5114842;28;20447;-83
2021/11/07 03:47:09;;;;;;;49.00;26.93;;;;;;;12.58;95.61;95731.97;5114771;28;20462;-83
2021/11/07 03:49:36;;;;;;;45.53;29.13;;;;;;;12.61;95.76;95733.53;5114468;28;20518;-83
2021/11/07 03:52:04;;;;;;;39.60;25.37;;;;;;;12.61;95.43;95734.34;5114592;28;20475;-83
2021/11/07 03:54:31;;;;;;;42.90;26.90;;;;;;;12.58;96.18;95737.25;5114583;28;20448;-83
2021/11/07 03:56:59;;;;;;;39.20;26.53;;;;;;;12.59;96.45;95733.66;5114496;28;20487;-82
2021/11/07 03:59:30;;;;;;;41.93;27.27;;;;;;;12.60;96.07;95726.59;5114735;28;20483;-83
2021/11/07 04:01:58;;;;;;;41.20;24.33;;;;;;;12.65;95.98;95732.31;5114203;28;21000;-83
2021/11/07 04:04:25;;;;;;;35.30;24.80;;;;;;;12.69;95.54;95731.09;5114127;28;20510;-83
2021/11/07 04:06:52;;;;;;;42.87;24.97;;;;;;;12.70;95.14;95738.88;5114544;28;20453;-83
2021/11/07 04:09:20;;;;;;;43.17;26.00;;;;;;;12.75;95.70;95735.91;5114274;28;20446;-83
2021/11/07 04:11:47;;;;;;;38.73;25.10;;;;;;;12.71;94.92;95731.81;5114187;28;20493;-83
2021/11/07 04:14:15;;;;;;;38.40;24.70;;;;;;;12.76;95.25;95729.69;5114015;28;20444;-82
2021/11/07 04:16:42;;;;;;;42.17;24.90;;;;;;;12.72;95.20;95733.50;5114010;28;20483;-83
2021/11/07 04:19:11;;;;;;;36.23;24.27;;;;;;;12.71;94.53;95737.09;5114170;28;21033;-82
2021/11/07 04:21:43;;;;;;;43.43;27.20;;;;;;;12.74;95.56;95742.13;5114382;28;20523;-83
2021/11/07 04:24:10;;;;;;;37.40;25.40;;;;;;;12.78;95.30;95732.19;5114208;28;20539;-83
2021/11/07 04:26:37;;;;;;;40.77;26.27;;;;;;;12.78;95.12;95730.41;5113944;28;20545;-83
2021/11/07 04:29:04;;;;;;;38.27;24.33;;;;;;;12.78;94.76;95735.66;5113995;28;20467;-83
2021/11/07 04:31:32;;;;;;;39.73;24.90;;;;;;;12.83;94.93;95733.50;5113908;28;20519;-83
2021/11/07 04:33:59;;;;;;;41.30;23.80;;;;;;;12.83;94.15;95722.97;5113867;28;20451;-83
2021/11/07 04:36:28;;;;;;;44.30;25.03;;;;;;;12.81;94.85;95732.78;5078113;28;20485;-83
2021/11/07 04:38:54;;;;;;;36.10;22.33;;;;;;;12.77;94.66;95723.44;5112884;28;20443;-83
2021/11/07 04:41:22;;;;;;;49.17;25.97;;;;;;;12.76;95.41;95721.78;5113459;28;20485;-83
2021/11/07 04:43:50;;;;;;;53.17;25.80;;;;;;;12.73;96.03;95729.09;5113702;28;20863;-83
2021/11/07 04:46:19;;;;;;;47.67;25.30;;;;;;;12.73;95.69;95723.81;5113659;28;20455;-83
2021/11/07 04:48:48;;;;;;;37.67;22.50;;;;;;;12.68;96.13;95708.38;5113728;28;20463;-83
2021/11/07 04:51:16;;;;;;;40.70;24.27;;;;;;;12.68;95.64;95709.22;5113736;28;20453;-83
2021/11/07 04:53:46;;;;;;;41.33;23.87;;;;;;;12.49;97.32;95701.13;5113598;28;20447;-82
2021/11/07 04:56:14;;;;;;;47.77;25.30;;;;;;;12.56;98.00;95706.72;5113858;28;20483;-83
2021/11/07 04:58:41;;;;;;;36.70;25.27;;;;;;;12.56;97.92;95701.47;5113749;28;20444;-83
2021/11/07 05:01:08;;;;;;;40.20;24.13;;;;;;;12.58;97.39;95713.53;5113731;28;20440;-83
2021/11/07 05:03:36;;;;;;;43.33;23.30;;;;;;;12.56;97.05;95717.25;5113441;28;20481;-83
2021/11/07 05:06:03;;;;;;;47.70;24.20;;;;;;;12.60;97.41;95705.53;5113350;28;20473;-83
2021/11/07 05:08:30;;;;;;;36.00;24.20;;;;;;;12.64;97.36;95714.84;5113571;28;20566;-83
2021/11/07 05:10:59;;;;;;;43.17;24.20;;;;;;;12.59;96.95;95717.00;5113365;28;20956;-83
2021/11/07 05:13:27;;;;;;;55.43;26.67;;;;;;;12.55;97.51;95711.16;5113186;28;20922;-83
2021/11/07 05:15:54;;;;;;;38.83;24.87;;;;;;;12.55;97.87;95710.31;5113255;28;21001;-83
2021/11/07 05:18:23;;;;;;;42.23;27.50;;;;;;;12.60;97.95;95719.53;5113283;28;20435;-83
2021/11/07 05:20:50;;;;;;;54.80;26.60;;;;;;;12.62;97.78;95732.56;5113055;28;20536;-83
2021/11/07 05:23:17;;;;;;;46.00;25.37;;;;;;;12.66;98.22;95723.44;5113073;28;20535;-82
2021/11/07 05:25:44;;;;;;;43.10;26.00;;;;;;;12.65;97.96;95717.34;5113138;28;20518;-83
2021/11/07 05:28:13;;;;;;;45.87;24.77;;;;;;;12.63;97.26;95718.44;5113298;28;20436;-83
2021/11/07 05:30:40;;;;;;;42.67;25.17;;;;;;;12.66;98.31;95728.72;5113211;28;20447;-83
2021/11/07 05:33:08;;;;;;;38.93;22.67;;;;;;;12.62;97.87;95722.88;5113061;28;20938;-83
2021/11/07 05:35:35;;;;;;;43.90;25.47;;;;;;;12.56;98.91;95726.00;5113093;28;20502;-83
2021/11/07 05:38:02;;;;;;;48.40;28.07;;;;;;;12.50;99.18;95728.28;5113301;28;20481;-83
2021/11/07 05:40:29;;;;;;;40.93;23.87;;;;;;;12.45;98.54;95723.38;5113605;28;20519;-83
2021/11/07 05:42:56;;;;;;;45.13;24.47;;;;;;;12.34;98.90;95716.31;5077390;28;20513;-83
2021/11/07 05:45:25;;;;;;;40.47;25.27;;;;;;;12.17;100.00;95722.06;5113045;28;20515;-83
2021/11/07 05:47:53;;;;;;;45.67;23.20;;;;;;;12.28;100.00;95727.31;5113015;28;20448;-83
2021/11/07 05:50:22;;;;;;;35.90;25.53;;;;;;;12.39;100.00;95724.69;5114500;28;20508;-83
2021/11/07 05:52:49;;;;;;;56.00;24.87;;;;;;;12.44;100.00;95731.41;5116653;28;20459;-83
2021/11/07 05:55:17;;;;;;;42.60;25.43;;;;;;;12.52;100.00;95731.63;5116926;28;20449;-83
2021/11/07 05:57:45;;;;;;;35.97;24.70;;;;;;;12.63;100.00;95734.22;5063703;28;20506;-83
2021/11/07 06:00:15;;;;;;;38.83;23.57;;;;;;;12.66;100.00;95739.25;5116622;28;20944;-83
2021/11/07 06:02:44;;;;;;;38.07;25.70;;;;;;;12.68;100.00;95745.22;5116302;28;20450;-83
2021/11/07 06:05:11;;;;;;;65.43;27.43;;;;;;;12.76;100.00;95742.84;5116692;28;20452;-83
2021/11/07 06:07:38;;;;;;;49.80;29.90;;;;;;;12.80;100.00;95738.16;5116534;28;20469;-83
2021/11/07 06:10:05;;;;;;;61.10;31.43;;;;;;;12.67;100.00;95739.13;5116489;28;20432;-83
2021/11/07 06:12:32;;;;;;;62.97;30.97;;;;;;;12.76;100.00;95750.75;5116348;28;20947;-83
2021/11/07 06:14:59;;;;;;;48.10;29.13;;;;;;;12.84;100.00;95737.78;5116425;28;20969;-83
2021/11/07 06:17:26;;;;;;;53.13;31.60;;;;;;;12.91;100.00;95749.50;5116324;28;20497;-82
2021/11/07 06:19:55;;;;;;;42.27;29.97;;;;;;;13.03;99.94;95748.53;5080534;28;20816;-83
2021/11/07 06:22:22;;;;;;;45.93;29.40;;;;;;;13.22;100.00;95747.06;5064141;28;20531;-83
2021/11/07 06:24:49;;;;;;;46.63;30.40;;;;;;;13.42;99.45;95748.06;5116053;28;20487;-83
2021/11/07 06:27:16;;;;;;;36.70;26.27;;;;;;;13.57;98.55;95755.53;5116455;28;20543;-83
2021/11/07 06:29:44;;;;;;;62.60;28.33;;;;;;;13.71;98.17;95762.31;5063401;28;20937;-83
2021/11/07 06:32:12;;;;;;;46.23;27.23;;;;;;;13.86;97.57;95760.19;5115896;28;20504;-83
2021/11/07 06:34:39;;;;;;;41.33;27.23;;;;;;;14.01;97.10;95758.91;5115749;28;20467;-83
2021/11/07 06:37:08;;;;;;;53.63;30.80;;;;;;;14.13;95.61;95760.50;5115720;28;20570;-83
2021/11/07 06:39:36;;;;;;;45.87;31.27;;;;;;;14.22;95.24;95754.47;5115686;28;20447;-83
2021/11/07 06:42:04;;;;;;;49.80;32.53;;;;;;;14.36;94.36;95760.34;5116013;28;20492;-83
2021/11/07 06:44:34;;;;;;;49.53;30.70;;;;;;;14.43;94.12;95756.22;5116085;28;20542;-82
2021/11/07 06:47:01;;;;;;;53.10;35.40;;;;;;;14.52;93.51;95760.75;5115684;28;20847;-83
2021/11/07 06:49:28;;;;;;;61.57;30.40;;;;;;;14.56;93.62;95756.84;5116021;28;20948;-83
2021/11/07 06:51:55;;;;;;;58.73;28.30;;;;;;;14.66;92.87;95765.66;5115982;28;20442;-83
2021/11/07 06:54:26;;;;;;;48.47;29.20;;;;;;;14.65;93.01;95758.69;5115676;28;20450;-83
2021/11/07 06:56:53;;;;;;;42.13;26.07;;;;;;;14.69;92.71;95753.97;5115945;28;20490;-83
2021/11/07 06:59:20;;;;;;;34.20;26.13;;;;;;;14.75;93.13;95767.50;5115329;28;20972;-83
2021/11/07 07:01:47;;;;;;;38.17;25.20;;;;;;;14.77;93.07;95762.94;5115161;28;20439;-83
2021/11/07 07:04:14;;;;;;;42.83;26.13;;;;;;;14.80;92.97;95764.47;5115036;28;20524;-83
2021/11/07 07:06:41;;;;;;;46.67;28.60;;;;;;;14.82;93.09;95758.06;5115024;28;20534;-83
2021/11/07 07:09:10;;;;;;;53.87;28.20;;;;;;;14.93;93.47;95764.22;5079315;28;20535;-83
2021/11/07 07:11:43;;;;;;;53.43;28.47;;;;;;;15.01;92.55;95764.34;5114750;28;20492;-83
2021/11/07 07:14:12;;;;;;;41.57;27.27;;;;;;;15.09;92.75;95764.53;5114898;28;21003;-83
2021/11/07 07:16:46;;;;;;;45.00;26.50;;;;;;;15.12;92.25;95758.97;5114731;28;20495;-83
2021/11/07 07:19:29;;;;;;;44.20;29.40;;;;;;;15.19;92.39;95765.38;5115259;28;20454;-83
2021/11/07 07:22:10;;;;;;;45.03;28.23;;;;;;;15.27;92.14;95765.53;5115384;28;20527;-83
2021/11/07 07:27:32;;;;;;;52.33;29.73;;;;;;;15.37;92.83;95766.38;5114962;28;20839;-83
2021/11/07 07:32:48;;;;;;;68.10;41.60;;;;;;;15.50;93.07;95763.47;5113742;28;20444;-83
2021/11/07 07:35:16;;;;;;;48.37;30.57;;;;;;;15.61;93.04;95771.31;5114684;28;21007;-83
2021/11/07 07:37:43;;;;;;;50.43;29.47;;;;;;;15.58;92.01;95762.75;5114306;28;20483;-83
2021/11/07 07:40:11;;;;;;;58.20;31.50;;;;;;;15.70;92.38;95753.75;5114526;28;20997;-83
2021/11/07 07:42:40;;;;;;;46.13;28.17;;;;;;;15.88;92.11;95745.91;5115666;28;20965;-83
2021/11/07 07:45:08;;;;;;;53.10;27.97;;;;;;;15.99;90.77;95748.44;5116029;28;20833;-81
2021/11/07 07:47:35;;;;;;;53.13;30.17;;;;;;;16.01;89.44;95744.66;5117500;28;20509;-83
2021/11/07 07:50:02;;;;;;;47.93;28.40;;;;;;;15.99;89.63;95751.91;5114441;28;20986;-83
2021/11/07 07:52:29;;;;;;;48.07;28.60;;;;;;;16.05;89.90;95742.56;5115770;28;20554;-82
2021/11/07 07:54:58;;;;;;;43.30;27.40;;;;;;;16.11;90.03;95748.09;5081157;28;20871;-83
2021/11/07 07:57:25;;;;;;;44.50;28.60;;;;;;;16.13;89.21;95740.03;5114379;28;20505;-82
2021/11/07 07:59:54;;;;;;;48.90;29.17;;;;;;;16.13;89.71;95739.19;5078845;28;20478;-81
2021/11/07 08:02:21;;;;;;;53.80;29.90;;;;;;;16.15;89.38;95753.13;5114511;28;20443;-81
2021/11/07 08:04:49;;;;;;;45.43;30.30;;;;;;;16.20;89.64;95749.09;5114624;28;20514;-82
2021/11/07 08:07:16;;;;;;;49.13;30.33;;;;;;;16.20;89.78;95748.25;5078516;28;20455;-82
2021/11/07 08:09:43;;;;;;;51.90;29.10;;;;;;;16.16;89.83;95750.31;5114365;28;20471;-82
2021/11/07 08:12:10;;;;;;;51.80;30.50;;;;;;;16.06;90.45;95750.34;5113946;28;20485;-82
2021/11/07 08:14:37;;;;;;;56.83;33.80;;;;;;;16.05;90.49;95743.41;5113825;28;20453;-82
2021/11/07 08:17:06;;;;;;;49.13;31.40;;;;;;;16.00;90.96;95748.28;5114038;28;20482;-83
2021/11/07 08:19:33;;;;;;;51.87;32.17;;;;;;;15.93;91.16;95735.75;5114144;28;20439;-83
2021/11/07 08:22:00;;;;;;;54.03;35.40;;;;;;;15.89;92.45;95742.28;5114082;28;20467;-83
2021/11/07 08:24:27;;;;;;;53.37;33.77;;;;;;;15.87;92.66;95741.59;5113455;28;20946;-83
2021/11/07 08:26:54;;;;;;;51.93;31.30;;;;;;;15.86;92.80;95743.41;5114164;28;20938;-83
2021/11/07 08:29:22;;;;;;;50.13;29.60;;;;;;;15.87;92.58;95733.66;5113718;28;20637;-83
2021/11/07 08:31:51;;;;;;;55.37;30.67;;;;;;;15.84;92.31;95740.06;5113611;28;20965;-83
2021/11/07 08:34:24;;;;;;;46.30;27.70;;;;;;;15.82;93.15;95739.38;5113930;28;20436;-83
2021/11/07 08:36:56;;;;;;;46.03;28.70;;;;;;;15.73;93.63;95732.31;5063071;28;20571;-83
2021/11/07 08:39:26;;;;;;;45.13;29.80;;;;;;;15.67;94.63;95723.13;5113479;28;20447;-83
2021/11/07 08:41:58;;;;;;;55.13;27.73;;;;;;;15.75;95.00;95725.06;5114406;28;20432;-82
2021/11/07 09:01:02;;;;;;;38.40;25.37;;;;;;;16.46;90.89;95677.72;5113748;28;20480;-82
2021/11/07 09:03:41;;;;;;;40.87;25.10;;;;;;;16.61;90.50;95684.22;5113518;28;20467;-83
2021/11/07 09:06:23;;;;;;;37.07;24.60;;;;;;;16.66;90.38;95658.13;5113171;28;20464;-83
2021/11/07 09:08:52;;;;;;;39.13;24.10;;;;;;;16.81;89.76;95650.53;5113672;28;20538;-83
2021/11/07 09:11:20;;;;;;;34.00;23.47;;;;;;;16.91;88.70;95650.47;5113499;28;20459;-83
2021/11/07 09:13:48;;;;;;;35.73;25.00;;;;;;;16.79;88.99;95646.38;5113124;28;20443;-83
2021/11/07 09:16:15;;;;;;;44.40;24.70;;;;;;;16.82;89.38;95643.41;5113261;28;20531;-83
2021/11/07 09:18:42;;;;;;;33.27;22.33;;;;;;;17.01;89.05;95637.94;5112895;28;20574;-83
2021/11/07 09:21:12;;;;;;;41.77;24.30;;;;;;;17.07;88.32;95640.03;5113543;28;20526;-82
2021/11/07 09:23:43;;;;;;;28.80;20.30;;;;;;;17.21;88.17;95636.81;5113068;28;20457;-83
2021/11/07 09:26:25;;;;;;;29.80;20.70;;;;;;;17.21;87.48;95634.16;5115725;28;20451;-83
2021/11/07 09:28:56;;;;;;;29.63;18.67;;;;;;;17.29;86.56;95628.94;5117807;28;20508;-83
2021/11/07 09:31:34;;;;;;;27.40;19.77;;;;;;;17.23;85.08;95618.94;5117311;28;20448;-82
2021/11/07 09:34:14;;;;;;;37.73;23.77;;;;;;;16.92;87.00;95615.00;5117084;28;20440;-82
2021/11/07 09:36:46;;;;;;;39.20;24.00;;;;;;;16.96;87.76;95617.19;5117183;28;20461;-82
2021/11/07 09:39:30;;;;;;;33.43;23.47;;;;;;;17.00;87.12;95602.66;5116850;28;20881;-83
2021/11/07 09:42:24;;;;;;;31.27;22.93;;;;;;;17.08;87.57;95598.44;5117193;28;20482;-82
2021/11/07 09:44:52;;;;;;;32.80;23.13;;;;;;;17.04;87.99;95590.75;5116736;28;20436;-82
2021/11/07 09:47:20;;;;;;;31.37;22.67;;;;;;;16.94;87.95;95591.81;5117057;28;20443;-82
2021/11/07 09:49:48;;;;;;;35.77;22.67;;;;;;;16.99;87.81;95589.53;5116652;28;20954;-82
2021/11/07 09:52:22;;;;;;;28.10;21.00;;;;;;;16.96;88.00;95589.84;5116628;28;20435;-82
2021/11/07 09:54:55;;;;;;;32.83;22.00;;;;;;;16.98;88.07;95594.00;5117011;28;20470;-82
2021/11/07 09:57:24;;;;;;;29.03;19.00;;;;;;;17.12;87.99;95590.00;5116677;28;20491;-82
2021/11/07 09:59:55;;;;;;;25.90;17.43;;;;;;;17.12;86.61;95591.84;5116469;28;20450;-82
2021/11/07 10:02:22;;;;;;;24.90;18.77;;;;;;;17.18;87.16;95597.34;5116409;28;20550;-82
2021/11/07 10:04:50;;;;;;;29.77;19.07;;;;;;;17.13;86.94;95586.38;5116275;28;20482;-82
2021/11/07 10:07:23;;;;;;;29.87;20.93;;;;;;;17.14;87.47;95577.44;5116440;28;21006;-82
2021/11/07 10:09:55;;;;;;;25.40;18.00;;;;;;;17.17;87.36;95569.16;5116621;28;20443;-82
2021/11/07 10:12:32;;;;;;;29.33;18.93;;;;;;;17.10;87.62;95570.78;5063652;28;20488;-82
2021/11/07 10:15:01;;;;;;;32.40;18.87;;;;;;;17.17;87.38;95566.50;5116575;28;20454;-82
2021/11/07 10:17:35;;;;;;;25.77;19.27;;;;;;;17.16;87.65;95564.84;5080861;28;20539;-82
2021/11/07 10:20:13;;;;;;;29.97;18.63;;;;;;;17.10;87.65;95552.22;5117004;28;20443;-82
2021/11/07 10:22:41;;;;;;;28.13;19.20;;;;;;;17.15;88.07;95555.22;5117875;28;20450;-83
2021/11/07 10:25:17;;;;;;;26.63;18.80;;;;;;;17.34;87.81;95552.34;5063544;28;20518;-83
2021/11/07 10:27:48;;;;;;;30.90;19.97;;;;;;;17.50;87.55;95545.50;5115911;28;20448;-82
2021/11/07 10:30:20;;;;;;;26.43;18.50;;;;;;;17.70;86.65;95547.00;5116191;28;20443;-83
2021/11/07 10:33:07;;;;;;;26.30;17.33;;;;;;;17.86;86.08;95547.06;5116221;28;20518;-83
2021/11/07 10:41:40;;;;;;;23.93;16.30;;;;;;;18.05;83.67;95527.41;5116122;28;20450;-83
2021/11/07 10:47:12;;;;;;;28.23;17.60;;;;;;;18.20;82.51;95519.66;5113996;28;20442;-83
2021/11/07 10:52:29;;;;;;;22.90;17.77;;;;;;;18.42;81.41;95499.63;5116477;28;20480;-83
2021/11/07 10:54:58;;;;;;;21.70;15.40;;;;;;;18.54;81.02;95504.47;5116029;28;20529;-83
2021/11/07 10:57:27;;;;;;;24.80;16.47;;;;;;;18.63;80.53;95497.38;5115872;28;20467;-82
2021/11/07 11:00:27;;;;;;;23.83;15.90;;;;;;;18.75;79.79;95497.88;5116178;28;20534;-83
2021/11/07 11:02:56;;;;;;;23.70;16.00;;;;;;;18.60;79.32;95491.53;5033032;28;20542;-83
2021/11/07 11:05:26;;;;;;;21.67;16.23;;;;;;;18.25;80.21;95491.63;4968801;28;20446;-83
2021/11/07 11:07:59;;;;;;;20.73;15.10;;;;;;;18.37;80.59;95476.19;5000991;28;20490;-83
2021/11/07 11:10:46;;;;;;;24.73;15.30;;;;;;;18.46;80.43;95469.88;5033917;28;21011;-83
2021/11/07 11:13:21;;;;;;;21.40;17.33;;;;;;;18.62;79.30;95468.25;5033839;28;20988;-84
2021/11/07 11:16:04;;;;;;;24.93;15.87;;;;;;;18.60;79.73;95451.66;5034368;28;20534;-84
2021/11/07 11:18:45;;;;;;;18.60;13.97;;;;;;;18.73;79.47;95450.16;5019149;28;20482;-83
2021/11/07 11:21:27;;;;;;;21.60;15.73;;;;;;;18.81;79.02;95449.38;5034270;28;20991;-83
2021/11/07 11:24:21;;;;;;;24.90;18.30;;;;;;;18.87;77.96;95440.72;5033363;28;20458;-83
2021/11/07 11:27:05;;;;;;;23.93;17.60;;;;;;;18.87;78.07;95440.72;5033612;28;20535;-83
2021/11/07 11:29:50;;;;;;;27.37;18.63;;;;;;;18.95;77.93;95429.22;5032690;28;20451;-83
2021/11/07 11:32:22;;;;;;;30.53;17.10;;;;;;;19.06;78.88;95429.69;5032770;28;20451;-83
2021/11/07 11:34:56;;;;;;;25.47;18.17;;;;;;;19.13;77.77;95440.50;5032572;28;20475;-83
2021/11/07 11:37:27;;;;;;;27.70;18.17;;;;;;;19.19;77.00;95430.03;5033058;28;20513;-83
2021/11/07 11:40:00;;;;;;;33.33;19.60;;;;;;;19.26;76.64;95437.31;5116513;28;20489;-83
2021/11/07 11:42:34;;;;;;;38.03;18.67;;;;;;;19.29;76.91;95434.31;5115828;28;20538;-83
2021/11/07 11:45:02;;;;;;;27.00;16.47;;;;;;;19.25;76.64;95428.50;5116044;28;20466;-84
2021/11/07 11:47:51;;;;;;;26.40;16.67;;;;;;;19.36;76.71;95428.13;5115729;28;20486;-83
2021/11/07 11:50:31;;;;;;;25.37;17.90;;;;;;;19.45;75.97;95419.13;5114856;28;20949;-84
2021/11/07 11:53:17;;;;;;;22.30;16.47;;;;;;;19.38;76.27;95412.03;5115653;28;20454;-83
2021/11/07 11:55:51;;;;;;;23.27;16.33;;;;;;;19.43;76.21;95405.19;5115703;28;20443;-81
2021/11/07 11:58:43;;;;;;;34.70;17.20;;;;;;;19.45;76.00;95413.00;5114876;28;20478;-82
2021/11/07 12:01:17;;;;;;;25.43;15.57;;;;;;;19.45;75.52;95397.03;5114861;28;20443;-82
2021/11/07 12:04:06;;;;;;;22.87;16.20;;;;;;;19.35;76.45;95385.72;5114548;28;20466;-83
2021/11/07 12:06:42;;;;;;;19.67;15.70;;;;;;;19.35;76.52;95377.75;5115050;28;20455;-83